sensor_id;sensor_type;location;lat;lon;timestamp;P1;durP1;ratioP1;P2;durP2;ratioP2
10335;SDS011;5213;53.548;9.930;2023-10-08T00:01:07;11.85;;;5.75;;
10335;SDS011;5213;53.548;9.930;2023-10-08T00:03:37;11.43;;;5.57;;
10335;SDS011;5213;53.548;9.930;2023-10-08T00:06:03;11.10;;;5.43;;
10335;SDS011;5213;53.548;9.930;2023-10-08T00:08:37;12.43;;;5.05;;
10335;SDS011;5213;53.548;9.930;2023-10-08T00:11:03;13.93;;;5.50;;
10335;SDS011;5213;53.548;9.930;2023-10-08T00:13:32;11.73;;;5.47;;
10335;SDS011;5213;53.548;9.930;2023-10-08T00:16:05;14.63;;;4.82;;
10335;SDS011;5213;53.548;9.930;2023-10-08T00:18:35;9.98;;;4.78;;
10335;SDS011;5213;53.548;9.930;2023-10-08T00:21:02;13.13;;;5.03;;
10335;SDS011;5213;53.548;9.930;2023-10-08T00:23:51;14.70;;;5.95;;
10335;SDS011;5213;53.548;9.930;2023-10-08T00:26:18;10.23;;;4.47;;
10335;SDS011;5213;53.548;9.930;2023-10-08T00:28:52;6.65;;;3.63;;
10335;SDS011;5213;53.548;9.930;2023-10-08T00:31:25;11.50;;;4.03;;
10335;SDS011;5213;53.548;9.930;2023-10-08T00:33:55;11.50;;;3.67;;
10335;SDS011;5213;53.548;9.930;2023-10-08T00:36:22;9.77;;;3.42;;
10335;SDS011;5213;53.548;9.930;2023-10-08T00:38:49;9.77;;;4.00;;
10335;SDS011;5213;53.548;9.930;2023-10-08T00:41:19;8.85;;;3.78;;
10335;SDS011;5213;53.548;9.930;2023-10-08T00:43:47;7.47;;;3.22;;
10335;SDS011;5213;53.548;9.930;2023-10-08T00:46:13;7.97;;;3.50;;
10335;SDS011;5213;53.548;9.930;2023-10-08T00:48:52;11.63;;;3.40;;
10335;SDS011;5213;53.548;9.930;2023-10-08T00:51:22;9.65;;;3.50;;
10335;SDS011;5213;53.548;9.930;2023-10-08T00:54:09;8.55;;;2.83;;
10335;SDS011;5213;53.548;9.930;2023-10-08T00:56:35;8.57;;;3.42;;
10335;SDS011;5213;53.548;9.930;2023-10-08T00:59:20;9.85;;;3.30;;
10335;SDS011;5213;53.548;9.930;2023-10-08T01:01:47;10.73;;;3.28;;
10335;SDS011;5213;53.548;9.930;2023-10-08T01:04:29;11.30;;;3.50;;
10335;SDS011;5213;53.548;9.930;2023-10-08T01:06:59;8.23;;;3.05;;
10335;SDS011;5213;53.548;9.930;2023-10-08T01:09:38;11.10;;;3.15;;
10335;SDS011;5213;53.548;9.930;2023-10-08T01:14:58;8.43;;;2.95;;
10335;SDS011;5213;53.548;9.930;2023-10-08T01:18:03;8.25;;;3.00;;
10335;SDS011;5213;53.548;9.930;2023-10-08T01:20:40;9.63;;;3.25;;
10335;SDS011;5213;53.548;9.930;2023-10-08T01:23:16;7.57;;;3.22;;
10335;SDS011;5213;53.548;9.930;2023-10-08T01:25:45;11.32;;;3.50;;
10335;SDS011;5213;53.548;9.930;2023-10-08T01:28:20;8.50;;;3.60;;
10335;SDS011;5213;53.548;9.930;2023-10-08T01:30:54;7.85;;;2.97;;
10335;SDS011;5213;53.548;9.930;2023-10-08T01:33:22;5.72;;;2.50;;
10335;SDS011;5213;53.548;9.930;2023-10-08T01:35:53;9.95;;;3.17;;
10335;SDS011;5213;53.548;9.930;2023-10-08T01:38:19;10.75;;;3.65;;
10335;SDS011;5213;53.548;9.930;2023-10-08T01:40:49;8.63;;;3.05;;
10335;SDS011;5213;53.548;9.930;2023-10-08T01:43:18;8.18;;;3.40;;
10335;SDS011;5213;53.548;9.930;2023-10-08T01:45:45;8.93;;;3.15;;
10335;SDS011;5213;53.548;9.930;2023-10-08T01:48:14;6.40;;;2.85;;
10335;SDS011;5213;53.548;9.930;2023-10-08T01:50:48;9.25;;;2.72;;
10335;SDS011;5213;53.548;9.930;2023-10-08T01:53:14;8.27;;;2.95;;
10335;SDS011;5213;53.548;9.930;2023-10-08T01:55:41;9.02;;;3.22;;
10335;SDS011;5213;53.548;9.930;2023-10-08T01:58:17;7.65;;;3.05;;
10335;SDS011;5213;53.548;9.930;2023-10-08T02:00:46;7.20;;;3.03;;
10335;SDS011;5213;53.548;9.930;2023-10-08T02:03:15;7.28;;;3.15;;
10335;SDS011;5213;53.548;9.930;2023-10-08T02:05:43;8.18;;;3.05;;
10335;SDS011;5213;53.548;9.930;2023-10-08T02:08:13;7.15;;;2.80;;
10335;SDS011;5213;53.548;9.930;2023-10-08T02:10:40;10.85;;;2.88;;
10335;SDS011;5213;53.548;9.930;2023-10-08T02:13:08;7.28;;;3.25;;
10335;SDS011;5213;53.548;9.930;2023-10-08T02:15:40;6.93;;;2.70;;
10335;SDS011;5213;53.548;9.930;2023-10-08T02:18:09;6.28;;;2.75;;
10335;SDS011;5213;53.548;9.930;2023-10-08T02:20:34;7.53;;;2.50;;
10335;SDS011;5213;53.548;9.930;2023-10-08T02:23:00;3.88;;;2.30;;
10335;SDS011;5213;53.548;9.930;2023-10-08T02:25:26;9.65;;;2.63;;
10335;SDS011;5213;53.548;9.930;2023-10-08T02:27:52;5.43;;;2.40;;
10335;SDS011;5213;53.548;9.930;2023-10-08T02:30:18;8.10;;;2.60;;
10335;SDS011;5213;53.548;9.930;2023-10-08T02:32:44;6.28;;;2.17;;
10335;SDS011;5213;53.548;9.930;2023-10-08T02:35:11;6.65;;;2.45;;
10335;SDS011;5213;53.548;9.930;2023-10-08T02:37:38;5.50;;;2.67;;
10335;SDS011;5213;53.548;9.930;2023-10-08T02:40:07;6.50;;;2.50;;
10335;SDS011;5213;53.548;9.930;2023-10-08T02:43:06;8.40;;;2.65;;
10335;SDS011;5213;53.548;9.930;2023-10-08T02:45:33;5.97;;;2.40;;
10335;SDS011;5213;53.548;9.930;2023-10-08T02:48:03;5.78;;;2.58;;
10335;SDS011;5213;53.548;9.930;2023-10-08T02:50:37;6.40;;;2.28;;
10335;SDS011;5213;53.548;9.930;2023-10-08T02:53:04;4.78;;;2.22;;
10335;SDS011;5213;53.548;9.930;2023-10-08T02:55:36;5.35;;;2.47;;
10335;SDS011;5213;53.548;9.930;2023-10-08T02:58:07;6.32;;;1.95;;
10335;SDS011;5213;53.548;9.930;2023-10-08T03:00:38;10.80;;;2.38;;
10335;SDS011;5213;53.548;9.930;2023-10-08T03:03:05;8.68;;;2.60;;
10335;SDS011;5213;53.548;9.930;2023-10-08T03:05:40;4.30;;;1.90;;
10335;SDS011;5213;53.548;9.930;2023-10-08T03:08:06;4.53;;;1.98;;
10335;SDS011;5213;53.548;9.930;2023-10-08T03:10:36;7.78;;;2.22;;
10335;SDS011;5213;53.548;9.930;2023-10-08T03:13:06;5.55;;;2.17;;
10335;SDS011;5213;53.548;9.930;2023-10-08T03:15:38;3.75;;;2.25;;
10335;SDS011;5213;53.548;9.930;2023-10-08T03:18:11;7.15;;;1.95;;
10335;SDS011;5213;53.548;9.930;2023-10-08T03:20:38;4.88;;;2.17;;
10335;SDS011;5213;53.548;9.930;2023-10-08T03:23:07;5.50;;;2.30;;
10335;SDS011;5213;53.548;9.930;2023-10-08T03:25:57;6.55;;;2.17;;
10335;SDS011;5213;53.548;9.930;2023-10-08T03:28:27;6.28;;;1.80;;
10335;SDS011;5213;53.548;9.930;2023-10-08T03:30:57;9.52;;;2.70;;
10335;SDS011;5213;53.548;9.930;2023-10-08T03:33:39;5.65;;;2.10;;
10335;SDS011;5213;53.548;9.930;2023-10-08T03:36:05;4.80;;;2.03;;
10335;SDS011;5213;53.548;9.930;2023-10-08T03:38:55;4.47;;;1.90;;
10335;SDS011;5213;53.548;9.930;2023-10-08T03:41:22;6.00;;;1.80;;
10335;SDS011;5213;53.548;9.930;2023-10-08T03:43:53;3.97;;;1.95;;
10335;SDS011;5213;53.548;9.930;2023-10-08T03:46:23;5.72;;;1.90;;
10335;SDS011;5213;53.548;9.930;2023-10-08T03:48:49;5.45;;;1.80;;
10335;SDS011;5213;53.548;9.930;2023-10-08T03:51:21;5.38;;;2.38;;
10335;SDS011;5213;53.548;9.930;2023-10-08T03:53:47;5.53;;;1.80;;
10335;SDS011;5213;53.548;9.930;2023-10-08T03:56:26;8.10;;;1.90;;
10335;SDS011;5213;53.548;9.930;2023-10-08T03:58:56;3.75;;;1.60;;
10335;SDS011;5213;53.548;9.930;2023-10-08T04:01:25;3.60;;;1.95;;
10335;SDS011;5213;53.548;9.930;2023-10-08T04:03:55;5.35;;;1.70;;
10335;SDS011;5213;53.548;9.930;2023-10-08T04:06:24;4.75;;;1.65;;
10335;SDS011;5213;53.548;9.930;2023-10-08T04:09:15;8.43;;;1.50;;
10335;SDS011;5213;53.548;9.930;2023-10-08T04:11:43;2.47;;;1.60;;
10335;SDS011;5213;53.548;9.930;2023-10-08T04:14:21;4.07;;;1.70;;
10335;SDS011;5213;53.548;9.930;2023-10-08T04:16:48;5.13;;;1.77;;
10335;SDS011;5213;53.548;9.930;2023-10-08T04:19:17;6.47;;;2.00;;
10335;SDS011;5213;53.548;9.930;2023-10-08T04:21:44;7.45;;;1.92;;
10335;SDS011;5213;53.548;9.930;2023-10-08T04:24:11;4.47;;;1.60;;
10335;SDS011;5213;53.548;9.930;2023-10-08T04:26:39;4.35;;;1.50;;
10335;SDS011;5213;53.548;9.930;2023-10-08T04:29:06;3.85;;;1.40;;
10335;SDS011;5213;53.548;9.930;2023-10-08T04:31:35;4.25;;;1.80;;
10335;SDS011;5213;53.548;9.930;2023-10-08T04:34:04;7.25;;;1.50;;
10335;SDS011;5213;53.548;9.930;2023-10-08T04:36:36;4.15;;;1.80;;
10335;SDS011;5213;53.548;9.930;2023-10-08T04:39:05;4.35;;;1.65;;
10335;SDS011;5213;53.548;9.930;2023-10-08T04:41:38;5.20;;;1.70;;
10335;SDS011;5213;53.548;9.930;2023-10-08T04:44:07;3.58;;;1.65;;
10335;SDS011;5213;53.548;9.930;2023-10-08T04:46:44;5.18;;;1.48;;
10335;SDS011;5213;53.548;9.930;2023-10-08T04:49:13;5.85;;;1.48;;
10335;SDS011;5213;53.548;9.930;2023-10-08T04:51:51;4.00;;;1.50;;
10335;SDS011;5213;53.548;9.930;2023-10-08T04:54:21;5.80;;;1.50;;
10335;SDS011;5213;53.548;9.930;2023-10-08T04:56:57;5.10;;;1.80;;
10335;SDS011;5213;53.548;9.930;2023-10-08T04:59:24;4.32;;;1.40;;
10335;SDS011;5213;53.548;9.930;2023-10-08T05:01:57;3.63;;;1.88;;
10335;SDS011;5213;53.548;9.930;2023-10-08T05:04:46;4.10;;;1.55;;
10335;SDS011;5213;53.548;9.930;2023-10-08T05:07:32;2.28;;;1.30;;
10335;SDS011;5213;53.548;9.930;2023-10-08T05:10:11;3.28;;;1.35;;
10335;SDS011;5213;53.548;9.930;2023-10-08T05:12:49;3.85;;;1.63;;
10335;SDS011;5213;53.548;9.930;2023-10-08T05:15:30;2.35;;;1.60;;
10335;SDS011;5213;53.548;9.930;2023-10-08T05:18:02;2.60;;;1.50;;
10335;SDS011;5213;53.548;9.930;2023-10-08T05:20:55;4.75;;;1.70;;
10335;SDS011;5213;53.548;9.930;2023-10-08T05:23:24;11.02;;;1.85;;
10335;SDS011;5213;53.548;9.930;2023-10-08T05:25:53;3.50;;;1.67;;
10335;SDS011;5213;53.548;9.930;2023-10-08T05:28:34;5.30;;;1.73;;
10335;SDS011;5213;53.548;9.930;2023-10-08T05:31:08;3.35;;;1.65;;
10335;SDS011;5213;53.548;9.930;2023-10-08T05:33:40;4.28;;;1.73;;
10335;SDS011;5213;53.548;9.930;2023-10-08T05:36:25;5.57;;;1.42;;
10335;SDS011;5213;53.548;9.930;2023-10-08T05:39:01;7.07;;;2.60;;
10335;SDS011;5213;53.548;9.930;2023-10-08T05:41:44;2.15;;;1.55;;
10335;SDS011;5213;53.548;9.930;2023-10-08T05:44:28;5.22;;;1.90;;
10335;SDS011;5213;53.548;9.930;2023-10-08T05:47:04;3.13;;;1.60;;
10335;SDS011;5213;53.548;9.930;2023-10-08T05:49:54;3.50;;;1.63;;
10335;SDS011;5213;53.548;9.930;2023-10-08T05:52:39;6.30;;;1.58;;
10335;SDS011;5213;53.548;9.930;2023-10-08T05:55:23;3.03;;;1.30;;
10335;SDS011;5213;53.548;9.930;2023-10-08T05:58:08;4.20;;;1.80;;
10335;SDS011;5213;53.548;9.930;2023-10-08T06:00:50;5.18;;;1.48;;
10335;SDS011;5213;53.548;9.930;2023-10-08T06:03:19;4.10;;;1.75;;
10335;SDS011;5213;53.548;9.930;2023-10-08T06:06:04;7.05;;;1.83;;
10335;SDS011;5213;53.548;9.930;2023-10-08T06:08:34;6.25;;;1.67;;
10335;SDS011;5213;53.548;9.930;2023-10-08T06:11:19;3.95;;;1.42;;
10335;SDS011;5213;53.548;9.930;2023-10-08T06:14:03;4.07;;;1.77;;
10335;SDS011;5213;53.548;9.930;2023-10-08T06:16:38;4.15;;;1.63;;
10335;SDS011;5213;53.548;9.930;2023-10-08T06:19:09;5.32;;;1.98;;
10335;SDS011;5213;53.548;9.930;2023-10-08T06:21:39;4.32;;;1.63;;
10335;SDS011;5213;53.548;9.930;2023-10-08T06:24:07;7.68;;;1.85;;
10335;SDS011;5213;53.548;9.930;2023-10-08T06:26:37;6.18;;;1.88;;
10335;SDS011;5213;53.548;9.930;2023-10-08T06:29:10;5.65;;;2.15;;
10335;SDS011;5213;53.548;9.930;2023-10-08T06:31:46;4.78;;;1.60;;
10335;SDS011;5213;53.548;9.930;2023-10-08T06:34:16;1.85;;;1.42;;
10335;SDS011;5213;53.548;9.930;2023-10-08T06:36:46;4.57;;;1.60;;
10335;SDS011;5213;53.548;9.930;2023-10-08T06:39:12;3.53;;;1.90;;
10335;SDS011;5213;53.548;9.930;2023-10-08T06:41:43;5.10;;;1.70;;
10335;SDS011;5213;53.548;9.930;2023-10-08T06:44:11;3.45;;;1.70;;
10335;SDS011;5213;53.548;9.930;2023-10-08T06:46:39;3.85;;;2.00;;
10335;SDS011;5213;53.548;9.930;2023-10-08T06:49:06;5.78;;;2.30;;
10335;SDS011;5213;53.548;9.930;2023-10-08T06:51:37;6.20;;;2.80;;
10335;SDS011;5213;53.548;9.930;2023-10-08T06:54:03;5.40;;;2.20;;
10335;SDS011;5213;53.548;9.930;2023-10-08T06:56:35;7.20;;;2.15;;
10335;SDS011;5213;53.548;9.930;2023-10-08T06:59:00;5.55;;;1.88;;
10335;SDS011;5213;53.548;9.930;2023-10-08T07:01:26;4.28;;;1.80;;
10335;SDS011;5213;53.548;9.930;2023-10-08T07:04:04;3.75;;;1.70;;
10335;SDS011;5213;53.548;9.930;2023-10-08T07:06:46;5.00;;;1.73;;
10335;SDS011;5213;53.548;9.930;2023-10-08T07:09:12;4.78;;;1.80;;
10335;SDS011;5213;53.548;9.930;2023-10-08T07:11:48;4.30;;;1.70;;
10335;SDS011;5213;53.548;9.930;2023-10-08T07:14:23;4.78;;;1.88;;
10335;SDS011;5213;53.548;9.930;2023-10-08T07:16:52;4.25;;;1.63;;
10335;SDS011;5213;53.548;9.930;2023-10-08T07:19:24;3.35;;;1.80;;
10335;SDS011;5213;53.548;9.930;2023-10-08T07:22:03;4.15;;;1.70;;
10335;SDS011;5213;53.548;9.930;2023-10-08T07:24:33;4.10;;;1.70;;
10335;SDS011;5213;53.548;9.930;2023-10-08T07:27:01;6.80;;;1.98;;
10335;SDS011;5213;53.548;9.930;2023-10-08T07:29:30;4.22;;;1.63;;
10335;SDS011;5213;53.548;9.930;2023-10-08T07:31:58;2.88;;;1.40;;
10335;SDS011;5213;53.548;9.930;2023-10-08T07:34:34;4.65;;;1.92;;
10335;SDS011;5213;53.548;9.930;2023-10-08T07:37:01;2.60;;;1.45;;
10335;SDS011;5213;53.548;9.930;2023-10-08T07:39:27;2.47;;;1.40;;
10335;SDS011;5213;53.548;9.930;2023-10-08T07:41:53;7.57;;;1.63;;
10335;SDS011;5213;53.548;9.930;2023-10-08T07:44:19;4.18;;;1.30;;
10335;SDS011;5213;53.548;9.930;2023-10-08T07:46:47;4.93;;;1.48;;
10335;SDS011;5213;53.548;9.930;2023-10-08T07:49:18;5.15;;;1.63;;
10335;SDS011;5213;53.548;9.930;2023-10-08T07:51:44;3.28;;;1.75;;
10335;SDS011;5213;53.548;9.930;2023-10-08T07:54:19;2.45;;;1.45;;
10335;SDS011;5213;53.548;9.930;2023-10-08T07:56:49;3.15;;;1.50;;
10335;SDS011;5213;53.548;9.930;2023-10-08T07:59:16;2.67;;;1.55;;
10335;SDS011;5213;53.548;9.930;2023-10-08T08:01:43;3.13;;;1.55;;
10335;SDS011;5213;53.548;9.930;2023-10-08T08:04:12;5.82;;;1.50;;
10335;SDS011;5213;53.548;9.930;2023-10-08T08:06:46;5.22;;;1.52;;
10335;SDS011;5213;53.548;9.930;2023-10-08T08:09:15;3.88;;;1.60;;
10335;SDS011;5213;53.548;9.930;2023-10-08T08:11:45;3.08;;;1.33;;
10335;SDS011;5213;53.548;9.930;2023-10-08T08:14:12;4.28;;;1.48;;
10335;SDS011;5213;53.548;9.930;2023-10-08T08:16:41;3.97;;;1.27;;
10335;SDS011;5213;53.548;9.930;2023-10-08T08:19:11;4.88;;;1.40;;
10335;SDS011;5213;53.548;9.930;2023-10-08T08:21:38;4.57;;;1.60;;
10335;SDS011;5213;53.548;9.930;2023-10-08T08:24:10;4.07;;;1.77;;
10335;SDS011;5213;53.548;9.930;2023-10-08T08:26:38;4.70;;;1.20;;
10335;SDS011;5213;53.548;9.930;2023-10-08T08:29:06;3.97;;;1.58;;
10335;SDS011;5213;53.548;9.930;2023-10-08T08:31:40;4.43;;;1.55;;
10335;SDS011;5213;53.548;9.930;2023-10-08T08:34:11;3.47;;;1.40;;
10335;SDS011;5213;53.548;9.930;2023-10-08T08:36:44;2.40;;;1.33;;
10335;SDS011;5213;53.548;9.930;2023-10-08T08:39:13;2.88;;;1.40;;
10335;SDS011;5213;53.548;9.930;2023-10-08T08:42:00;5.43;;;1.63;;
10335;SDS011;5213;53.548;9.930;2023-10-08T08:44:29;5.80;;;1.35;;
10335;SDS011;5213;53.548;9.930;2023-10-08T08:47:00;3.28;;;1.27;;
10335;SDS011;5213;53.548;9.930;2023-10-08T08:49:32;6.45;;;1.88;;
10335;SDS011;5213;53.548;9.930;2023-10-08T08:52:02;4.20;;;1.30;;
10335;SDS011;5213;53.548;9.930;2023-10-08T08:54:29;3.03;;;1.30;;
10335;SDS011;5213;53.548;9.930;2023-10-08T08:56:57;5.07;;;1.50;;
10335;SDS011;5213;53.548;9.930;2023-10-08T08:59:29;3.88;;;1.70;;
10335;SDS011;5213;53.548;9.930;2023-10-08T09:01:58;2.45;;;1.48;;
10335;SDS011;5213;53.548;9.930;2023-10-08T09:04:31;3.33;;;1.55;;
10335;SDS011;5213;53.548;9.930;2023-10-08T09:07:00;5.95;;;1.30;;
10335;SDS011;5213;53.548;9.930;2023-10-08T09:09:35;2.80;;;1.38;;
10335;SDS011;5213;53.548;9.930;2023-10-08T09:12:09;3.38;;;1.40;;
10335;SDS011;5213;53.548;9.930;2023-10-08T09:14:35;3.92;;;1.40;;
10335;SDS011;5213;53.548;9.930;2023-10-08T09:17:03;2.55;;;1.17;;
10335;SDS011;5213;53.548;9.930;2023-10-08T09:19:30;1.98;;;1.40;;
10335;SDS011;5213;53.548;9.930;2023-10-08T09:24:30;2.22;;;1.20;;
10335;SDS011;5213;53.548;9.930;2023-10-08T09:27:06;2.90;;;1.20;;
10335;SDS011;5213;53.548;9.930;2023-10-08T09:29:32;3.33;;;1.30;;
10335;SDS011;5213;53.548;9.930;2023-10-08T09:32:05;2.75;;;1.40;;
10335;SDS011;5213;53.548;9.930;2023-10-08T09:34:33;3.42;;;1.30;;
10335;SDS011;5213;53.548;9.930;2023-10-08T09:36:59;4.43;;;1.52;;
10335;SDS011;5213;53.548;9.930;2023-10-08T09:39:26;2.33;;;1.00;;
10335;SDS011;5213;53.548;9.930;2023-10-08T09:42:00;2.42;;;1.25;;
10335;SDS011;5213;53.548;9.930;2023-10-08T09:44:36;1.20;;;1.10;;
10335;SDS011;5213;53.548;9.930;2023-10-08T09:47:03;4.05;;;1.55;;
10335;SDS011;5213;53.548;9.930;2023-10-08T09:49:36;2.38;;;1.15;;
10335;SDS011;5213;53.548;9.930;2023-10-08T09:52:13;1.80;;;1.20;;
10335;SDS011;5213;53.548;9.930;2023-10-08T09:57:13;3.10;;;1.65;;
10335;SDS011;5213;53.548;9.930;2023-10-08T09:59:39;2.47;;;1.23;;
10335;SDS011;5213;53.548;9.930;2023-10-08T10:02:06;3.05;;;1.20;;
10335;SDS011;5213;53.548;9.930;2023-10-08T10:04:35;4.38;;;1.30;;
10335;SDS011;5213;53.548;9.930;2023-10-08T10:07:08;2.80;;;1.13;;
10335;SDS011;5213;53.548;9.930;2023-10-08T10:09:37;4.05;;;1.20;;
10335;SDS011;5213;53.548;9.930;2023-10-08T10:12:05;1.65;;;1.20;;
10335;SDS011;5213;53.548;9.930;2023-10-08T10:14:41;6.13;;;1.27;;
10335;SDS011;5213;53.548;9.930;2023-10-08T10:17:08;3.20;;;1.15;;
10335;SDS011;5213;53.548;9.930;2023-10-08T10:19:49;2.05;;;1.20;;
10335;SDS011;5213;53.548;9.930;2023-10-08T10:22:26;1.50;;;1.23;;
10335;SDS011;5213;53.548;9.930;2023-10-08T10:24:57;2.58;;;1.38;;
10335;SDS011;5213;53.548;9.930;2023-10-08T10:27:25;3.95;;;1.30;;
10335;SDS011;5213;53.548;9.930;2023-10-08T10:29:51;4.15;;;1.10;;
10335;SDS011;5213;53.548;9.930;2023-10-08T10:32:29;2.05;;;1.15;;
10335;SDS011;5213;53.548;9.930;2023-10-08T10:34:55;1.80;;;1.17;;
10335;SDS011;5213;53.548;9.930;2023-10-08T10:37:21;1.85;;;1.02;;
10335;SDS011;5213;53.548;9.930;2023-10-08T10:39:52;2.15;;;1.08;;
10335;SDS011;5213;53.548;9.930;2023-10-08T10:42:20;1.95;;;1.25;;
10335;SDS011;5213;53.548;9.930;2023-10-08T10:44:46;2.42;;;1.40;;
10335;SDS011;5213;53.548;9.930;2023-10-08T10:47:14;3.47;;;1.40;;
10335;SDS011;5213;53.548;9.930;2023-10-08T10:49:41;3.47;;;1.00;;
10335;SDS011;5213;53.548;9.930;2023-10-08T10:52:26;1.55;;;1.10;;
10335;SDS011;5213;53.548;9.930;2023-10-08T10:55:10;1.98;;;1.30;;
10335;SDS011;5213;53.548;9.930;2023-10-08T10:57:39;1.55;;;1.42;;
10335;SDS011;5213;53.548;9.930;2023-10-08T11:00:06;2.10;;;1.17;;
10335;SDS011;5213;53.548;9.930;2023-10-08T11:02:51;4.10;;;1.20;;
10335;SDS011;5213;53.548;9.930;2023-10-08T11:05:21;3.40;;;1.30;;
10335;SDS011;5213;53.548;9.930;2023-10-08T11:07:53;2.25;;;1.35;;
10335;SDS011;5213;53.548;9.930;2023-10-08T11:10:23;2.35;;;1.10;;
10335;SDS011;5213;53.548;9.930;2023-10-08T11:12:49;1.13;;;1.00;;
10335;SDS011;5213;53.548;9.930;2023-10-08T11:15:18;1.45;;;1.20;;
10335;SDS011;5213;53.548;9.930;2023-10-08T11:17:44;2.80;;;1.38;;
10335;SDS011;5213;53.548;9.930;2023-10-08T11:20:23;1.88;;;1.00;;
10335;SDS011;5213;53.548;9.930;2023-10-08T11:22:52;1.48;;;1.27;;
10335;SDS011;5213;53.548;9.930;2023-10-08T11:25:27;1.20;;;1.10;;
10335;SDS011;5213;53.548;9.930;2023-10-08T11:27:56;5.53;;;1.30;;
10335;SDS011;5213;53.548;9.930;2023-10-08T11:30:34;11.43;;;1.65;;
10335;SDS011;5213;53.548;9.930;2023-10-08T11:33:00;3.00;;;1.30;;
10335;SDS011;5213;53.548;9.930;2023-10-08T11:35:26;2.80;;;1.23;;
10335;SDS011;5213;53.548;9.930;2023-10-08T11:37:59;2.13;;;1.30;;
10335;SDS011;5213;53.548;9.930;2023-10-08T11:40:28;2.88;;;1.48;;
10335;SDS011;5213;53.548;9.930;2023-10-08T11:42:54;2.78;;;1.30;;
10335;SDS011;5213;53.548;9.930;2023-10-08T11:45:24;1.92;;;1.20;;
10335;SDS011;5213;53.548;9.930;2023-10-08T11:48:03;2.33;;;1.58;;
10335;SDS011;5213;53.548;9.930;2023-10-08T11:50:37;2.38;;;1.20;;
10335;SDS011;5213;53.548;9.930;2023-10-08T11:53:03;3.17;;;1.17;;
10335;SDS011;5213;53.548;9.930;2023-10-08T11:55:33;1.73;;;1.20;;
10335;SDS011;5213;53.548;9.930;2023-10-08T11:58:07;3.75;;;1.40;;
10335;SDS011;5213;53.548;9.930;2023-10-08T12:00:42;2.55;;;1.23;;
10335;SDS011;5213;53.548;9.930;2023-10-08T12:03:12;2.65;;;1.55;;
10335;SDS011;5213;53.548;9.930;2023-10-08T12:05:43;2.30;;;1.13;;
10335;SDS011;5213;53.548;9.930;2023-10-08T12:08:19;2.83;;;1.20;;
10335;SDS011;5213;53.548;9.930;2023-10-08T12:10:48;2.55;;;1.23;;
10335;SDS011;5213;53.548;9.930;2023-10-08T12:13:19;1.73;;;1.40;;
10335;SDS011;5213;53.548;9.930;2023-10-08T12:15:50;3.83;;;1.52;;
10335;SDS011;5213;53.548;9.930;2023-10-08T12:18:30;2.75;;;1.35;;
10335;SDS011;5213;53.548;9.930;2023-10-08T12:20:59;2.35;;;1.30;;
10335;SDS011;5213;53.548;9.930;2023-10-08T12:23:26;1.45;;;1.35;;
10335;SDS011;5213;53.548;9.930;2023-10-08T12:25:54;1.95;;;1.48;;
10335;SDS011;5213;53.548;9.930;2023-10-08T12:28:25;2.67;;;1.20;;
10335;SDS011;5213;53.548;9.930;2023-10-08T12:30:53;4.82;;;1.40;;
10335;SDS011;5213;53.548;9.930;2023-10-08T12:33:21;2.53;;;1.30;;
10335;SDS011;5213;53.548;9.930;2023-10-08T12:35:49;2.40;;;1.45;;
10335;SDS011;5213;53.548;9.930;2023-10-08T12:38:17;1.75;;;1.13;;
10335;SDS011;5213;53.548;9.930;2023-10-08T12:40:45;1.70;;;1.30;;
10335;SDS011;5213;53.548;9.930;2023-10-08T12:43:18;2.10;;;1.38;;
10335;SDS011;5213;53.548;9.930;2023-10-08T12:45:47;1.45;;;1.30;;
10335;SDS011;5213;53.548;9.930;2023-10-08T12:48:24;1.67;;;1.50;;
10335;SDS011;5213;53.548;9.930;2023-10-08T12:50:51;1.98;;;1.45;;
10335;SDS011;5213;53.548;9.930;2023-10-08T12:53:30;3.00;;;1.67;;
10335;SDS011;5213;53.548;9.930;2023-10-08T12:56:05;2.25;;;1.40;;
10335;SDS011;5213;53.548;9.930;2023-10-08T12:58:35;2.42;;;1.80;;
10335;SDS011;5213;53.548;9.930;2023-10-08T13:01:13;2.08;;;1.40;;
10335;SDS011;5213;53.548;9.930;2023-10-08T13:03:42;2.97;;;1.85;;
10335;SDS011;5213;53.548;9.930;2023-10-08T13:06:12;3.65;;;1.65;;
10335;SDS011;5213;53.548;9.930;2023-10-08T13:08:53;1.90;;;1.27;;
10335;SDS011;5213;53.548;9.930;2023-10-08T13:11:23;1.63;;;1.17;;
10335;SDS011;5213;53.548;9.930;2023-10-08T13:13:50;2.53;;;1.40;;
10335;SDS011;5213;53.548;9.930;2023-10-08T13:16:21;2.30;;;1.30;;
10335;SDS011;5213;53.548;9.930;2023-10-08T13:18:48;2.38;;;1.30;;
10335;SDS011;5213;53.548;9.930;2023-10-08T13:21:14;3.50;;;1.48;;
10335;SDS011;5213;53.548;9.930;2023-10-08T13:23:40;2.50;;;1.38;;
10335;SDS011;5213;53.548;9.930;2023-10-08T13:26:06;1.65;;;1.33;;
10335;SDS011;5213;53.548;9.930;2023-10-08T13:28:35;2.67;;;1.48;;
10335;SDS011;5213;53.548;9.930;2023-10-08T13:31:04;1.30;;;1.20;;
10335;SDS011;5213;53.548;9.930;2023-10-08T13:33:41;2.72;;;1.30;;
10335;SDS011;5213;53.548;9.930;2023-10-08T13:36:09;2.72;;;1.50;;
10335;SDS011;5213;53.548;9.930;2023-10-08T13:38:36;2.25;;;1.30;;
10335;SDS011;5213;53.548;9.930;2023-10-08T13:41:06;1.42;;;1.33;;
10335;SDS011;5213;53.548;9.930;2023-10-08T13:43:40;1.80;;;1.30;;
10335;SDS011;5213;53.548;9.930;2023-10-08T13:46:06;3.75;;;1.40;;
10335;SDS011;5213;53.548;9.930;2023-10-08T13:48:38;1.55;;;1.33;;
10335;SDS011;5213;53.548;9.930;2023-10-08T13:51:04;2.60;;;1.40;;
10335;SDS011;5213;53.548;9.930;2023-10-08T13:53:36;3.03;;;2.47;;
10335;SDS011;5213;53.548;9.930;2023-10-08T13:56:04;1.60;;;1.40;;
10335;SDS011;5213;53.548;9.930;2023-10-08T13:58:30;1.80;;;1.30;;
10335;SDS011;5213;53.548;9.930;2023-10-08T14:00:59;2.97;;;1.30;;
10335;SDS011;5213;53.548;9.930;2023-10-08T14:03:26;1.17;;;1.10;;
10335;SDS011;5213;53.548;9.930;2023-10-08T14:05:53;1.60;;;1.42;;
10335;SDS011;5213;53.548;9.930;2023-10-08T14:08:19;0.95;;;0.95;;
10335;SDS011;5213;53.548;9.930;2023-10-08T14:10:47;1.38;;;1.20;;
10335;SDS011;5213;53.548;9.930;2023-10-08T14:13:14;1.88;;;1.33;;
10335;SDS011;5213;53.548;9.930;2023-10-08T14:15:44;4.03;;;1.40;;
10335;SDS011;5213;53.548;9.930;2023-10-08T14:18:13;1.38;;;1.15;;
10335;SDS011;5213;53.548;9.930;2023-10-08T14:20:43;1.20;;;1.10;;
10335;SDS011;5213;53.548;9.930;2023-10-08T14:23:11;2.20;;;1.13;;
10335;SDS011;5213;53.548;9.930;2023-10-08T14:25:38;1.50;;;1.33;;
10335;SDS011;5213;53.548;9.930;2023-10-08T14:28:09;2.75;;;1.30;;
10335;SDS011;5213;53.548;9.930;2023-10-08T14:30:46;1.65;;;1.25;;
10335;SDS011;5213;53.548;9.930;2023-10-08T14:33:20;1.65;;;1.25;;
10335;SDS011;5213;53.548;9.930;2023-10-08T14:35:51;2.30;;;1.50;;
10335;SDS011;5213;53.548;9.930;2023-10-08T14:38:35;1.40;;;1.30;;
10335;SDS011;5213;53.548;9.930;2023-10-08T14:41:19;1.15;;;1.05;;
10335;SDS011;5213;53.548;9.930;2023-10-08T14:44:03;1.73;;;1.30;;
10335;SDS011;5213;53.548;9.930;2023-10-08T14:46:31;2.67;;;1.20;;
10335;SDS011;5213;53.548;9.930;2023-10-08T14:48:59;2.45;;;1.23;;
10335;SDS011;5213;53.548;9.930;2023-10-08T14:51:27;2.75;;;1.60;;
10335;SDS011;5213;53.548;9.930;2023-10-08T14:53:52;3.60;;;1.73;;
10335;SDS011;5213;53.548;9.930;2023-10-08T14:56:18;3.65;;;1.45;;
10335;SDS011;5213;53.548;9.930;2023-10-08T14:58:44;2.97;;;1.35;;
10335;SDS011;5213;53.548;9.930;2023-10-08T15:01:12;2.25;;;1.42;;
10335;SDS011;5213;53.548;9.930;2023-10-08T15:03:39;1.67;;;1.40;;
10335;SDS011;5213;53.548;9.930;2023-10-08T15:06:05;2.80;;;1.40;;
10335;SDS011;5213;53.548;9.930;2023-10-08T15:08:32;3.65;;;1.77;;
10335;SDS011;5213;53.548;9.930;2023-10-08T15:10:58;2.38;;;1.73;;
10335;SDS011;5213;53.548;9.930;2023-10-08T15:13:25;4.90;;;1.67;;
10335;SDS011;5213;53.548;9.930;2023-10-08T15:15:51;2.58;;;1.90;;
10335;SDS011;5213;53.548;9.930;2023-10-08T15:18:19;5.63;;;1.80;;
10335;SDS011;5213;53.548;9.930;2023-10-08T15:20:47;2.17;;;1.42;;
10335;SDS011;5213;53.548;9.930;2023-10-08T15:23:14;3.75;;;2.33;;
10335;SDS011;5213;53.548;9.930;2023-10-08T15:25:42;2.33;;;1.48;;
10335;SDS011;5213;53.548;9.930;2023-10-08T15:28:07;2.70;;;1.65;;
10335;SDS011;5213;53.548;9.930;2023-10-08T15:30:33;3.00;;;1.30;;
10335;SDS011;5213;53.548;9.930;2023-10-08T15:32:59;4.72;;;1.50;;